Weather reports worldwide

Advertisment
Pristina, Kosovo (13481): temperature & dewpoint: 04.12.2018 15:00:00 - 10.12.2018 15:00:00 (CET)Pristina, Kosovo (13481): wind speed: 04.12.2018 15:00:00 - 10.12.2018 15:00:00 (CET)Pristina, Kosovo (13481): wind direction: 04.12.2018 15:00:00 - 10.12.2018 15:00:00 (CET)Pristina, Kosovo (13481): visibility: 04.12.2018 15:00:00 - 10.12.2018 15:00:00 (CET)Pristina, Kosovo (13481): precipitation: 04.12.2018 15:00:00 - 10.12.2018 15:00:00 (CET)
Date & Time tt [°C] td [°C] ff [km/h] ff [kn] dd vv [km] rr [mm]
10.12.2018 15:00:00 5,0 0,0 28 15 NNW 10 -
10.12.2018 14:00:00 6,0 1,0 29 16 N 10 -
10.12.2018 13:00:00 7,0 3,0 11 6 N 10 -
10.12.2018 12:00:00 6,0 2,0 15 8 N 10 -
10.12.2018 11:00:00 4,0 2,0 2 1 - 10 -
10.12.2018 10:00:00 3,0 1,0 0 0 N 8 -
10.12.2018 09:00:00 2,0 0,0 0 0 N 8 -
10.12.2018 08:00:00 2,0 0,0 2 1 - 7 -
10.12.2018 07:00:00 2,0 0,0 5 3 - 6 -
10.12.2018 06:00:00 1,0 -1,0 9 5 NW 5 -
10.12.2018 05:00:00 1,0 -1,0 8 4 NNW 2,0 -
10.12.2018 04:00:00 1,0 -1,0 5 3 - 2,0 -
10.12.2018 03:00:00 1,0 -1,0 2 1 - 3,0 -
10.12.2018 02:00:00 1,0 -2,0 4 2 - 5 -
10.12.2018 01:00:00 1,0 -2,0 2 1 - 7 -
10.12.2018 00:00:00 0,0 -2,0 0 0 N 7 -
09.12.2018 23:00:00 1,0 -2,0 2 1 - 8 -
09.12.2018 22:00:00 0,0 -3,0 4 2 - 10 -
09.12.2018 21:00:00 1,0 -1,0 2 1 - 10 -
09.12.2018 20:00:00 1,0 -2,0 2 1 - 10 -
09.12.2018 19:00:00 2,0 -1,0 2 1 - 10 -
09.12.2018 18:00:00 2,0 -1,0 4 2 - 10 -
09.12.2018 17:00:00 3,0 0,0 8 4 SSE 10 -
09.12.2018 16:00:00 5,0 1,0 5 3 - 10 0,3
09.12.2018 15:00:00 7,0 2,0 9 5 S 10 -
09.12.2018 14:00:00 7,0 1,0 5 3 - 10 -
09.12.2018 13:00:00 8,0 1,0 5 3 - 10 -
09.12.2018 12:00:00 7,0 1,0 4 2 - 10 -
09.12.2018 11:00:00 5,0 1,0 5 3 - 10 -
09.12.2018 10:00:00 4,0 1,0 9 5 W 8 -
09.12.2018 09:00:00 3,0 2,0 8 4 WSW 4,0 -
09.12.2018 08:00:00 1,0 -1,0 0 0 N 2,0 -
09.12.2018 07:00:00 1,0 -1,0 4 2 - 8 -
09.12.2018 06:00:00 1,0 -1,0 2 1 - 10 -
09.12.2018 05:00:00 1,0 -1,0 4 2 - 10 -
09.12.2018 04:00:00 2,0 -1,0 0 0 N 10 -
09.12.2018 03:00:00 2,0 0,0 2 1 - 10 -
09.12.2018 02:00:00 2,0 0,0 0 0 N 10 -
09.12.2018 01:00:00 2,0 0,0 9 5 N 6 -
09.12.2018 00:00:00 3,0 0,0 2 1 - 5 -
08.12.2018 23:00:00 3,0 0,0 8 4 NW 5 -
08.12.2018 22:00:00 2,0 0,0 8 4 N 3,0 -
08.12.2018 21:00:00 2,0 -1,0 5 3 - 4,0 -
08.12.2018 20:00:00 2,0 -1,0 11 6 N 3,0 -
08.12.2018 19:00:00 2,0 -1,0 11 6 NNE 6 -
08.12.2018 18:00:00 2,0 -1,0 8 4 SSE 8 -
08.12.2018 17:00:00 2,0 -2,0 8 4 S 10 -
08.12.2018 16:00:00 3,0 -2,0 8 4 SE 10 -
08.12.2018 15:00:00 3,0 -2,0 15 8 S 10 -
08.12.2018 14:00:00 2,0 -1,0 9 5 SE 8 -
08.12.2018 13:00:00 1,0 -3,0 8 4 SE 4,0 -
08.12.2018 12:00:00 3,0 -5,0 4 2 - 10 -
08.12.2018 11:00:00 3,0 -4,0 9 5 S 10 -
08.12.2018 10:00:00 0,0 -5,0 9 5 S 10 -
08.12.2018 09:00:00 -2,0 -5,0 0 0 N 6 -
08.12.2018 08:00:00 -3,0 -6,0 0 0 N 5 -
08.12.2018 07:00:00 -4,0 -6,0 2 1 - 3,0 -
08.12.2018 06:00:00 -4,0 -7,0 8 4 N 4,0 -
08.12.2018 05:00:00 -5,0 -8,0 2 1 - 4,0 -
08.12.2018 04:00:00 -6,0 -8,0 0 0 N 4,0 -
08.12.2018 03:00:00 -6,0 -8,0 4 2 - 5 -
08.12.2018 02:00:00 -6,0 -9,0 0 0 N 6 -
08.12.2018 01:00:00 -5,0 -8,0 0 0 N 7 -
08.12.2018 00:00:00 -5,0 -7,0 0 0 N 7 -
07.12.2018 23:00:00 -5,0 -8,0 0 0 N 8 -
07.12.2018 22:00:00 -4,0 -7,0 2 1 - 10 -
07.12.2018 21:00:00 -3,0 -6,0 4 2 - 10 -
07.12.2018 20:00:00 -2,0 -7,0 0 0 N 10 -
07.12.2018 19:00:00 -2,0 -6,0 2 1 - 8 -
07.12.2018 18:00:00 -1,0 -6,0 4 2 - 10 -
07.12.2018 17:00:00 1,0 -6,0 4 2 - 7 -
07.12.2018 16:00:00 3,0 -4,0 0 0 N 10 -
07.12.2018 15:00:00 4,0 -5,0 5 3 - 10 -
07.12.2018 14:00:00 4,0 -5,0 4 2 - 10 -
07.12.2018 13:00:00 4,0 -4,0 4 2 - 8 -
07.12.2018 12:00:00 3,0 -5,0 2 1 - 8 -
07.12.2018 11:00:00 1,0 -6,0 4 2 - 7 -
07.12.2018 10:00:00 -2,0 -6,0 2 1 - 6 -
07.12.2018 09:00:00 -5,0 -8,0 4 2 - 4,0 -
07.12.2018 08:00:00 -7,0 -10,0 5 3 - 3,0 -
07.12.2018 07:00:00 -9,0 -11,0 0 0 N 4,0 -
07.12.2018 06:00:00 -8,0 -11,0 5 3 - 8 -
07.12.2018 05:00:00 -8,0 -11,0 0 0 N 8 -
07.12.2018 04:00:00 -8,0 -11,0 0 0 N 8 -
07.12.2018 03:00:00 -8,0 -11,0 0 0 N 8 -
07.12.2018 02:00:00 -8,0 -10,0 0 0 N 8 -
07.12.2018 01:00:00 -7,0 -10,0 0 0 N 10 -
07.12.2018 00:00:00 -5,0 -9,0 2 1 - 10 -
06.12.2018 23:00:00 -6,0 -10,0 2 1 - 10 -
06.12.2018 22:00:00 -6,0 -9,0 2 1 - 10 -
06.12.2018 21:00:00 -4,0 -8,0 0 0 N 10 -
06.12.2018 20:00:00 -4,0 -8,0 2 1 - 10 -
06.12.2018 19:00:00 -3,0 -8,0 0 0 N 10 -
06.12.2018 18:00:00 -2,0 -9,0 8 4 NNW 10 -
06.12.2018 17:00:00 -2,0 -8,0 4 2 - 10 -
06.12.2018 16:00:00 0,0 -7,0 5 3 - 10 -
06.12.2018 15:00:00 4,0 -9,0 2 1 - 10 -
06.12.2018 14:00:00 4,0 -8,0 4 2 - 10 -
06.12.2018 13:00:00 4,0 -9,0 2 1 - 10 -
06.12.2018 12:00:00 3,0 -7,0 5 3 - 10 -
06.12.2018 11:00:00 2,0 -6,0 2 1 - 10 -
06.12.2018 10:00:00 0,0 -5,0 4 2 - 10 -
06.12.2018 09:00:00 -2,0 -6,0 2 1 - 10 -
06.12.2018 08:00:00 -5,0 -8,0 0 0 N 8 -
06.12.2018 07:00:00 -7,0 -10,0 2 1 - 10 -
06.12.2018 06:00:00 -6,0 -9,0 4 2 - 10 -
06.12.2018 05:00:00 -6,0 -9,0 2 1 - 10 -
06.12.2018 04:00:00 -4,0 -8,0 8 4 NW 10 -
06.12.2018 03:00:00 -4,0 -8,0 4 2 - 10 -
06.12.2018 02:00:00 -3,0 -7,0 2 1 - 10 -
06.12.2018 01:00:00 -4,0 -9,0 4 2 - 10 -
06.12.2018 00:00:00 -2,0 -7,0 2 1 - 10 -
05.12.2018 23:00:00 0,0 -7,0 11 6 NW 10 -
05.12.2018 22:00:00 0,0 -7,0 9 5 N 10 -
05.12.2018 21:00:00 1,0 -6,0 9 5 WNW 10 -
05.12.2018 20:00:00 -1,0 -6,0 2 1 - 10 -
05.12.2018 19:00:00 1,0 -6,0 9 5 N 10 -
05.12.2018 18:00:00 1,0 -7,0 9 5 N 10 -
05.12.2018 17:00:00 2,0 -6,0 9 5 N 10 -
05.12.2018 16:00:00 4,0 -6,0 18 10 NNE 10 -
05.12.2018 15:00:00 6,0 -5,0 18 10 NNE 10 -
05.12.2018 14:00:00 7,0 -7,0 21 11 NNW 10 -
05.12.2018 13:00:00 7,0 -7,0 26 14 N 10 -
05.12.2018 12:00:00 8,0 -6,0 29 16 NNW 10 -
05.12.2018 11:00:00 7,0 -6,0 35 19 NNW 10 -
05.12.2018 10:00:00 7,0 -5,0 37 20 N 10 -
05.12.2018 09:00:00 6,0 -3,0 26 14 N 10 -
05.12.2018 08:00:00 6,0 -3,0 26 14 N 10 -
05.12.2018 07:00:00 5,0 -2,0 29 16 N 10 -
05.12.2018 06:00:00 7,0 -1,0 28 15 NNW 10 -
05.12.2018 05:00:00 8,0 0,0 31 17 NNW 10 -
05.12.2018 04:00:00 8,0 3,0 31 17 NNW 10 -
05.12.2018 03:00:00 8,0 3,0 18 10 N 10 -
05.12.2018 02:00:00 7,0 3,0 9 5 N 10 -
05.12.2018 01:00:00 7,0 4,0 2 1 - 10 -
05.12.2018 00:00:00 7,0 4,0 13 7 NNW 10 -
04.12.2018 23:00:00 7,0 4,0 8 4 N 4,0 -
04.12.2018 22:00:00 7,0 4,0 8 4 NNW 4,0 -
04.12.2018 21:00:00 7,0 4,0 9 5 N 4,0 -
04.12.2018 20:00:00 7,0 3,0 5 3 - 4,0 -
04.12.2018 19:00:00 7,0 2,0 5 3 - 4,0 -
04.12.2018 18:00:00 6,0 2,0 5 3 - 4,0 -
04.12.2018 17:00:00 7,0 2,0 2 1 - 5 -
04.12.2018 16:00:00 8,0 3,0 4 2 - 5 -
04.12.2018 15:00:00 9,0 2,0 2 1 - 6 -

tt = temperature
td = dewpoint
ff = wind speed
dd = wind direction
vv = visibility
rr = precipitation

Next stations